Tiempo atmosférico en la estación meteorológica de Pedraza, Segovia (1107 m.)



Fecha
DESCASC
Temp. máxima en grados centígrados (hora)
DESCASC
Temp. mínima en grados centígrados (hora)
DESCASC
Temp. media en grados centígrados
DESCASC
Racha de viento máxima en m/sg (hora)
DESCASC
Velocidad máxima media en intervalos de 10 minutos(hora)
DESCASC
Precipitaciones diarias en mm
DESCASC
Precipitaciones de 00:00 a 06:00 en mm
DESCASC
Precipitaciones de 06:00 a 12:00 en mm
DESCASC
Precipitaciones de 12:00 a 18:00 en mm
DESCASC
Precipitaciones de 18:00 a 24:00 en mm
DESCASC
05-12-2019 9.1 (16:10) 2.8 (00:00) 6 11.39 (23:00) 5.56 (22:50) 0 0 0 0 0
04-12-2019 7.9 (15:10) 2.3 (22:50) 5.1 12.22 (04:50) 7.22 (04:50) 0 0 0 0 0
03-12-2019 6.2 (15:30) -1.4 (00:00) 2.4 5.56 (21:40) 3.61 (21:40) 0 0 0 0 0
02-12-2019 7.5 (14:50) -1.4 (-00:0) 3.1 12.22 (11:50) 7.5 (11:00) 0 0 0 0 0
01-12-2019 6.2 (11:00) 2.4 (00:00) 4.3 6.94 (11:10) 4.44 (10:50) 4.8 0 0.2 3.2 1.4
30-11-2019 15 (14:20) 3.1 (00:00) 9 13.89 (14:30) 9.17 (15:10) 14.6 2.4 0 5.8 6.4
29-11-2019 11.2 (15:00) 7.3 (00:00) 9.3 10 (00:30) 6.67 (00:40) 4.8 0.8 1 0.6 2.4
28-11-2019 10.7 (13:20) 7.2 (04:30) 8.9 12.78 (13:10) 7.78 (13:10) 0 0 0 0 0
27-11-2019 9.5 (13:50) 5.5 (00:00) 7.5 16.39 (00:40) 8.61 (00:40) 0.2 0.2 0 0 0
26-11-2019 16.8 (15:00) 5.9 (00:00) 11.3 17.5 (19:00) 9.44 (19:00) 0.8 0 0.2 0 0.6
25-11-2019 11.3 (15:00) 8.3 (05:40) 9.8 13.89 (04:10) 7.5 (04:20) 1.8 1.8 0 0 0
24-11-2019 9.4 (23:50) 2 (00:00) 5.7 12.78 (04:20) 7.5 (04:00) 0 0 0 0 0
23-11-2019 6.5 (16:20) 1.8 (00:00) 4.1 19.44 (00:40) 10 (04:10) 6.4 6.4 0 0 0
22-11-2019 13.5 (16:00) 3.9 (00:00) 8.7 19.44 (11:50) 11.94 (10:30) 5.8 0.2 0.4 1.6 3.6
21-11-2019 6.7 (14:50) 2.4 (00:00) 4.5 8.61 (11:00) 4.44 (11:00) 2.8 0 0.8 2 0
20-11-2019 7.2 (11:00) 0.1 (00:10) 3.6 6.11 (11:40) 3.61 (11:50) 4.4 0 0 2.8 1.6
19-11-2019 6.9 (13:50) -1 (-00:0) 3 5.28 (14:30) 3.61 (14:30) 0 0 0 0 0
18-11-2019 3 (14:10) 0.8 (00:00) 1.9 7.78 (00:40) 5 (01:00) 0.4 0 0 0.4 0
17-11-2019 6.5 (16:00) 0.9 (00:00) 3.7 13.61 (14:00) 7.78 (14:00) 7.6 0 1 6.4 0.2
16-11-2019 4.1 (17:20) -1 (-00:0) 1.5 9.72 (18:30) 5.56 (14:40) 0.4 0.2 0.2 0 0
15-11-2019 3 (16:10) -0.5 (-00:0) 1.3 11.39 (15:20) 6.39 (14:50) 2 0.6 0.4 1 0
14-11-2019 7.1 (00:00) 0 (00:00) 3.5 18.61 (05:50) 10 (05:50) 10 2.4 3.2 1.6 2.8
13-11-2019 9.5 (16:00) 5.7 (00:00) 7.6 15.56 (01:50) 9.72 (03:00) 14 9.8 4.2 0 0
12-11-2019 7.2 (23:59) 0.9 (00:00) 4 12.5 (22:10) 7.22 (23:20) 5.6 0 0 0 5.6
11-11-2019 7.3 (13:20) 1.4 (00:00) 4.4 9.44 (14:10) 5.28 (13:40) 0.2 0 0 0.2 0
10-11-2019 4.7 (00:00) 0 (00:00) 2.3 13.06 (03:00) 7.78 (02:30) 1.8 0 0 1.8 0
09-11-2019 6.1 (16:10) 1.3 (00:00) 3.7 12.78 (21:20) 8.33 (21:50) 0.6 0 0 0.2 0.4
08-11-2019 5.4 (15:20) 0.1 (08:30) 2.8 13.61 (02:50) 8.33 (13:20) 0 0 0 0 0
07-11-2019 8.2 (04:20) 1.3 (00:00) 4.7 12.78 (18:10) 7.78 (10:30) 4 3.2 0 0.4 0.4
06-11-2019 9.6 (15:10) 3.5 (00:00) 6.6 10.28 (00:10) 6.11 (00:20) 0 0 0 0 0

Gráficas

Temp. máximas Temp. mínimas Temp. medias Precipitaciones Rachas de viento máximas Velocidades máximas media en intervalos de 10 minutos

Datos horarios

Fecha y hora oficial Temperatura (ºC) Velocidad del viento (km/h) Dirección del viento Racha (km/h) Dirección de racha Precipitación (mm) Presión (hPa) Tendencia (hPa) Humedad (%)
2019-12-05 23:00:00 6.5 19 Este 41 Este 0 -- -- 79
2019-12-05 22:00:00 6.7 17 Sudeste 27 Sudeste 0 -- -- 78
2019-12-05 21:00:00 6.4 2 Sudeste 8 Sur 0 -- -- 79
2019-12-05 20:00:00 7.2 4 Sur 8 Sur 0 -- -- 76
2019-12-05 19:00:00 6.3 5 Nordeste 10 Norte 0 -- -- 82
2019-12-05 18:00:00 7.1 7 Nordeste 17 Norte 0 -- -- 79
2019-12-05 17:00:00 8.5 10 Nordeste 25 Nordeste 0 -- -- 74
2019-12-05 16:00:00 8.6 10 Nordeste 25 Nordeste 0 -- -- 74
2019-12-05 15:00:00 8.7 17 Nordeste 26 Nordeste 0 -- -- 75
2019-12-05 14:00:00 8.6 14 Nordeste 26 Nordeste 0 -- -- 74
2019-12-05 13:00:00 7.6 13 Nordeste 22 Nordeste 0 -- -- 78
2019-12-05 12:00:00 6.3 9 Nordeste 18 Nordeste 0 -- -- 83
2019-12-05 11:00:00 6.1 5 Nordeste 18 Sudoeste 0 -- -- 84
2019-12-05 10:00:00 4.7 8 Nordeste 14 Nordeste 0 -- -- 92
2019-12-05 09:00:00 3 0 Calma 3 Noroeste 0 -- -- 97
2019-12-05 08:00:00 3.1 0 Calma 7 Este 0 -- -- 98
2019-12-05 07:00:00 3.1 3 Este 5 Este 0 -- -- 98
2019-12-05 06:00:00 3.2 3 Norte 8 Norte 0 -- -- 98
2019-12-05 05:00:00 3.2 4 Nordeste 7 Nordeste 0 -- -- 97
2019-12-05 04:00:00 3 0 Calma 5 Noroeste 0 -- -- 97
2019-12-05 03:00:00 2.9 3 Oeste 7 Sudoeste 0 -- -- 96
2019-12-05 02:00:00 2.8 2 Oeste 8 Oeste 0 -- -- 96
2019-12-05 01:00:00 3.1 8 Noroeste 13 Oeste 0 -- -- 97
2019-12-05 00:00:00 2.8 5 Sur 9 Sur 0 -- -- 97
2019-12-04 23:00:00 2.3 2 Sur 4 Oeste 0 -- -- 96
2019-12-04 22:00:00 2.8 0 Calma 5 Oeste 0 -- -- 94
2019-12-04 21:00:00 3.8 0 Calma 5 Oeste 0 -- -- 94
2019-12-04 20:00:00 4.9 2 Este 4 Nordeste 0 -- -- 91
2019-12-04 19:00:00 5.9 3 Sudoeste 5 Noroeste 0 -- -- 88
2019-12-04 18:00:00 6.7 0 Calma 8 Noroeste 0 -- -- 87
2019-12-04 17:00:00 7.1 5 Norte 13 Nordeste 0 -- -- 82
2019-12-04 16:00:00 7.3 10 Nordeste 26 Nordeste 0 -- -- 82
2019-12-04 15:00:00 7.8 9 Nordeste 18 Nordeste 0 -- -- 81
2019-12-04 14:00:00 7.6 6 Nordeste 13 Sur 0 -- -- 82
2019-12-04 13:00:00 6 6 Norte 10 Norte 0 -- -- 86
2019-12-04 12:00:00 5.3 2 Oeste 7 Noroeste 0 -- -- 87
2019-12-04 11:00:00 4.8 2 Sudoeste 4 Oeste 0 -- -- 88
2019-12-04 10:00:00 4.2 0 Calma 8 Oeste 0 -- -- 89
2019-12-04 09:00:00 4.2 5 Este 19 Sudeste 0 -- -- 88
2019-12-04 08:00:00 6 15 Este 26 Este 0 -- -- 81
2019-12-04 07:00:00 5 12 Este 23 Este 0 -- -- 84
2019-12-04 06:00:00 5.4 9 Este 30 Sudeste 0 -- -- 81
2019-12-04 05:00:00 5.5 22 Este 44 Este 0 -- -- 81
2019-12-04 04:00:00 4.8 19 Este 25 Este 0 -- -- 82
2019-12-04 03:00:00 4.8 8 Nordeste 26 Este 0 -- -- 77
2019-12-04 02:00:00 3.2 6 Nordeste 15 Nordeste 0 -- -- 79
2019-12-04 01:00:00 4.7 5 Este 19 Sudeste 0 -- -- 72
2019-12-04 00:00:00 4 6 Este 13 Este 0 -- -- 75
2019-12-03 23:00:00 2.7 3 Norte 12 Sur 0 -- -- 79
2019-12-03 22:00:00 3.6 8 Este 20 Este 0 -- -- 74
2019-12-03 21:00:00 1.1 2 Norte 10 Este 0 -- -- 85
2019-12-03 20:00:00 0.9 4 Nordeste 11 Este 0 -- -- 88
2019-12-03 19:00:00 1.1 4 Este 14 Nordeste 0 -- -- 89
2019-12-03 18:00:00 3.1 6 Nordeste 12 Nordeste 0 -- -- 81
2019-12-03 17:00:00 5.2 4 Norte 9 Norte 0 -- -- 72
2019-12-03 16:00:00 6 3 Norte 7 Norte 0 -- -- 66
2019-12-03 15:00:00 5.5 3 Sudoeste 5 Sur 0 -- -- 73
2019-12-03 14:00:00 3.8 3 Sur 8 Nordeste 0 -- -- 83
2019-12-03 13:00:00 0.7 0 Calma 10 Noroeste 0 -- -- 92
2019-12-03 12:00:00 0.1 3 Oeste 7 Oeste 0 -- -- 94
2019-12-03 11:00:00 -0.8 0 Calma 6 Sur 0 -- -- 96
2019-12-03 10:00:00 -1 3 Sur 6 Sudoeste 0 -- -- 96
2019-12-03 09:00:00 -1.1 0 Calma 6 Sur 0 -- -- 96
2019-12-03 08:00:00 -1.1 2 Oeste 6 Sudoeste 0 -- -- 96
2019-12-03 07:00:00 -0.7 2 Oeste 6 Oeste 0 -- -- 97
2019-12-03 06:00:00 -0.7 0 Calma 4 Noroeste 0 -- -- 97
2019-12-03 05:00:00 -0.4 0 Calma 4 Sur 0 -- -- 96
2019-12-03 04:00:00 -0.2 0 Calma 4 Sur 0 -- -- 95
2019-12-03 03:00:00 -0.2 2 Sudoeste 4 Sur 0 -- -- 97
2019-12-03 02:00:00 -1.2 0 Calma 3 Sur 0 -- -- 96
2019-12-03 01:00:00 -0.9 2 Sudoeste 10 Sudoeste 0 -- -- 96
2019-12-03 00:00:00 -1.4 3 Sudeste 5 Sudeste 0 -- -- 94
2019-12-02 23:00:00 -0.9 0 Calma 3 Este 0 -- -- 93
2019-12-02 22:00:00 0.1 2 Sudeste 6 Este 0 -- -- 88
2019-12-02 21:00:00 1.1 3 Nordeste 8 Este 0 -- -- 89
2019-12-02 20:00:00 2.1 5 Nordeste 10 Nordeste 0 -- -- 84
2019-12-02 19:00:00 2.9 5 Sudeste 7 Nordeste 0 -- -- 78
2019-12-02 18:00:00 4.9 5 Este 23 Nordeste 0 -- -- 70
2019-12-02 17:00:00 6.7 18 Nordeste 36 Nordeste 0 -- -- 63
2019-12-02 16:00:00 7.4 16 Nordeste 36 Nordeste 0 -- -- 64
2019-12-02 15:00:00 7.5 21 Nordeste 33 Nordeste 0 -- -- 64
2019-12-02 14:00:00 7.1 23 Nordeste 40 Este 0 -- -- 65
2019-12-02 13:00:00 6.5 24 Nordeste 42 Este 0 -- -- 71
2019-12-02 12:00:00 5.7 27 Nordeste 44 Nordeste 0 -- -- 73
2019-12-02 11:00:00 5.4 27 Nordeste 41 Nordeste 0 -- -- 71
2019-12-02 10:00:00 4.3 17 Este 39 Este 0 -- -- 80
2019-12-02 09:00:00 3.1 21 Nordeste 35 Nordeste 0 -- -- 84
2019-12-02 08:00:00 2.5 10 Este 29 Nordeste 0 -- -- 86
2019-12-02 07:00:00 2.1 8 Este 22 Este 0 -- -- 88
2019-12-02 06:00:00 1.8 6 Este 15 Este 0 -- -- 91
2019-12-02 05:00:00 1.6 0 Calma 9 Nordeste 0 -- -- 92
2019-12-02 04:00:00 2.3 5 Nordeste 12 Nordeste 0 -- -- 90
2019-12-02 03:00:00 2.1 4 Nordeste 18 Este 0 -- -- 92
2019-12-02 02:00:00 2.9 6 Este 18 Este 0 -- -- 91
2019-12-02 01:00:00 3.3 9 Nordeste 19 Este 0 -- -- 92
2019-12-02 00:00:00 4.2 11 Este 19 Nordeste 0 -- -- 96
2019-12-01 23:00:00 4.3 9 Nordeste 14 Nordeste 0 -- -- 97
2019-12-01 22:00:00 4.3 5 Nordeste 19 Este 0.2 -- -- 97
2019-12-01 21:00:00 4.3 9 Este 19 Este 0 -- -- 96
2019-12-01 20:00:00 4.4 12 Nordeste 19 Nordeste 0.6 -- -- 97
2019-12-01 19:00:00 4.5 7 Nordeste 12 Nordeste 0.6 -- -- 98
2019-12-01 18:00:00 4.5 8 Nordeste 17 Nordeste 1 -- -- 97
2019-12-01 17:00:00 4.5 8 Nordeste 15 Nordeste 0.4 -- -- 95
2019-12-01 16:00:00 4.9 9 Nordeste 12 Nordeste 0.2 -- -- 92
2019-12-01 15:00:00 5.4 4 Nordeste 8 Norte 0 -- -- 93
2019-12-01 14:00:00 5.2 3 Noroeste 8 Oeste 0.8 -- -- 93
2019-12-01 13:00:00 5.3 4 Noroeste 8 Oeste 0.8 -- -- 91
2019-12-01 12:00:00 5.9 5 Sudoeste 25 Sur 0.2 -- -- 85
2019-12-01 11:00:00 6.2 15 Sur 23 Sudeste 0 -- -- 73
2019-12-01 10:00:00 5.3 6 Este 10 Nordeste 0 -- -- 80
2019-12-01 09:00:00 3.4 5 Sudeste 13 Sudeste 0 -- -- 86
2019-12-01 08:00:00 2.8 8 Sudeste 11 Sudeste 0 -- -- 86
2019-12-01 07:00:00 3 5 Sur 17 Sur 0 -- -- 88
2019-12-01 06:00:00 2.7 7 Sudeste 12 Sudeste 0 -- -- 87
2019-12-01 05:00:00 3 5 Sur 11 Sudeste 0 -- -- 87
2019-12-01 04:00:00 3.3 5 Sur 10 Sur 0 -- -- 91
2019-12-01 03:00:00 2.6 4 Sur 10 Sudoeste 0 -- -- 91
2019-12-01 02:00:00 2.7 6 Sur 9 Sudoeste 0 -- -- 90
2019-12-01 01:00:00 2.9 8 Sudoeste 14 Sudoeste 0 -- -- 91
2019-12-01 00:00:00 3.2 10 Sudoeste 17 Sudoeste 0 -- -- 91
2019-11-30 23:00:00 3.4 8 Sur 21 Sudoeste 0 -- -- 90
2019-11-30 22:00:00 3.4 6 Sudoeste 32 Sur 0.6 -- -- 90
2019-11-30 21:00:00 3.6 20 Sur 29 Sudoeste 0.8 -- -- 92
2019-11-30 20:00:00 4.1 10 Sudoeste 30 Oeste 3.6 -- -- 95
2019-11-30 19:00:00 5.2 4 Sur 18 Oeste 1.4 -- -- 95
2019-11-30 18:00:00 5.5 7 Oeste 37 Noroeste 3 -- -- 97
2019-11-30 17:00:00 7 22 Noroeste 46 Oeste 2.6 -- -- 95
2019-11-30 16:00:00 12 16 Oeste 49 Sudoeste 0.2 -- -- 80
2019-11-30 15:00:00 13.8 25 Oeste 50 Oeste 0 -- -- 65
2019-11-30 14:00:00 14.3 24 Oeste 44 Sudoeste 0 -- -- 65
2019-11-30 13:00:00 13.8 22 Sudoeste 42 Sudoeste 0 -- -- 64
2019-11-30 12:00:00 13.3 15 Sudoeste 34 Sudoeste 0 -- -- 67
2019-11-30 11:00:00 12.5 12 Sudoeste 29 Sudoeste 0 -- -- 75
2019-11-30 10:00:00 10.9 13 Sudoeste 24 Sudoeste 0 -- -- 81
2019-11-30 09:00:00 9.9 13 Sur 21 Sur 0 -- -- 85
2019-11-30 08:00:00 8.9 9 Sur 13 Sudoeste 0 -- -- 90
2019-11-30 07:00:00 9.8 7 Sudoeste 26 Oeste 0 -- -- 92
2019-11-30 06:00:00 10.1 14 Sudoeste 23 Sudoeste 0 -- -- 91
2019-11-30 05:00:00 9.9 8 Sudoeste 14 Sudoeste 0 -- -- 92
2019-11-30 04:00:00 9.3 5 Sur 8 Sudoeste 0 -- -- 96
2019-11-30 03:00:00 9.3 0 Calma 6 Sudoeste 0 -- -- 95
2019-11-30 02:00:00 9.1 4 Sur 8 Sudeste 0.2 -- -- 97
2019-11-30 01:00:00 8.6 7 Sudeste 11 Sudeste 2.2 -- -- 97
2019-11-30 00:00:00 8.7 2 Noroeste 9 Sudeste 2.4 -- -- 93
2019-11-29 23:00:00 8.7 7 Sudeste 9 Sudeste 0 -- -- 87
2019-11-29 22:00:00 8.2 3 Sudeste 9 Sudeste 0 -- -- 87
2019-11-29 21:00:00 7.5 6 Sudeste 11 Sudeste 0 -- -- 89
2019-11-29 20:00:00 7.9 5 Sur 11 Sudoeste 0 -- -- 89
2019-11-29 19:00:00 9.1 5 Sudoeste 9 Sudoeste 0 -- -- 93
2019-11-29 18:00:00 10.2 6 Sudoeste 18 Oeste 0 -- -- 94
2019-11-29 17:00:00 10.8 8 Oeste 22 Sudoeste 0 -- -- 93
2019-11-29 16:00:00 10.9 13 Oeste 26 Oeste 0 -- -- 95
2019-11-29 15:00:00 11.2 14 Oeste 26 Oeste 0 -- -- 93
2019-11-29 14:00:00 11 12 Oeste 30 Oeste 0.2 -- -- 96
2019-11-29 13:00:00 10.2 19 Oeste 30 Noroeste 0.4 -- -- 98
2019-11-29 12:00:00 10.5 14 Oeste 24 Oeste 0.2 -- -- 99
2019-11-29 11:00:00 10.1 9 Oeste 17 Oeste 0.4 -- -- 99
2019-11-29 10:00:00 9.8 6 Oeste 18 Oeste 0 -- -- 98
2019-11-29 09:00:00 9.7 12 Oeste 23 Sudoeste 0 -- -- 98
2019-11-29 08:00:00 9.6 13 Oeste 27 Oeste 0 -- -- 99
2019-11-29 07:00:00 9.5 13 Oeste 27 Oeste 0.4 -- -- 99
2019-11-29 06:00:00 9.5 18 Oeste 33 Oeste 0 -- -- 98
2019-11-29 05:00:00 9.5 16 Oeste 34 Oeste 0.2 -- -- 97
2019-11-29 04:00:00 9.6 19 Oeste 36 Oeste 0 -- -- 95
2019-11-29 03:00:00 9.4 19 Oeste 33 Oeste 0.2 -- -- 96
2019-11-29 02:00:00 9.1 15 Sudoeste 36 Oeste 0.4 -- -- 96
2019-11-29 01:00:00 9.3 22 Sudoeste 36 Sudoeste 0 -- -- 93
2019-11-29 00:00:00 9.3 19 Sudoeste 36 Sudoeste 0 -- -- 87
2019-11-28 23:00:00 9 18 Sudoeste 45 Sudoeste 0 -- -- 89
2019-11-28 22:00:00 10.2 21 Sudoeste 42 Sudoeste 0 -- -- 74
2019-11-28 21:00:00 10.1 21 Sudoeste 39 Sudoeste 0 -- -- 74
2019-11-28 20:00:00 9.9 14 Sudoeste 30 Sudoeste 0 -- -- 76
2019-11-28 19:00:00 9 7 Sudoeste 19 Sudoeste 0 -- -- 81
2019-11-28 18:00:00 9.3 5 Sudoeste 13 Sudoeste 0 -- -- 81
2019-11-28 17:00:00 9.7 8 Oeste 26 Oeste 0 -- -- 81
2019-11-28 16:00:00 10.3 12 Sudoeste 26 Sudoeste 0 -- -- 75
2019-11-28 15:00:00 10.2 14 Oeste 33 Sudoeste 0 -- -- 74
2019-11-28 14:00:00 10.5 24 Oeste 46 Sudoeste 0 -- -- 73
2019-11-28 13:00:00 10.4 23 Sudoeste 42 Oeste 0 -- -- 75
2019-11-28 12:00:00 9.8 21 Sudoeste 37 Sudoeste 0 -- -- 76
2019-11-28 11:00:00 9.3 24 Oeste 39 Sudoeste 0 -- -- 78
2019-11-28 10:00:00 9.2 19 Sudoeste 35 Sudoeste 0 -- -- 79
2019-11-28 09:00:00 8.8 19 Sudoeste 32 Sudoeste 0 -- -- 81
2019-11-28 08:00:00 8.2 18 Sudoeste 35 Sudoeste 0 -- -- 83
2019-11-28 07:00:00 8 12 Sudoeste 31 Sudoeste 0 -- -- 84
2019-11-28 06:00:00 7.7 14 Sudoeste 27 Sudoeste 0 -- -- 83
2019-11-28 05:00:00 7.3 11 Oeste 35 Sudoeste 0 -- -- 87
2019-11-28 04:00:00 7.6 21 Oeste 39 Sudoeste 0 -- -- 84
2019-11-28 03:00:00 7.7 18 Oeste 38 Oeste 0 -- -- 82
2019-11-28 02:00:00 7.5 22 Oeste 41 Sudoeste 0 -- -- 82
2019-11-28 01:00:00 7.5 19 Oeste 37 Oeste 0 -- -- 83
2019-11-28 00:00:00 7.4 22 Oeste 51 Oeste 0 -- -- 83
2019-11-27 23:00:00 7.6 18 Oeste 41 Oeste 0 -- -- 84
2019-11-27 22:00:00 7.7 19 Oeste 35 Oeste 0 -- -- 82
2019-11-27 21:00:00 7.8 19 Oeste 38 Oeste 0 -- -- 78
2019-11-27 20:00:00 7.8 18 Oeste 35 Sudoeste 0 -- -- 78
2019-11-27 19:00:00 7.9 20 Oeste 33 Sudoeste 0 -- -- 78
2019-11-27 18:00:00 8.1 19 Sudoeste 35 Oeste 0 -- -- 79
2019-11-27 17:00:00 8.5 18 Oeste 39 Oeste 0 -- -- 74
2019-11-27 16:00:00 8.8 22 Oeste 40 Oeste 0 -- -- 74
2019-11-27 15:00:00 9 17 Oeste 40 Sudoeste 0 -- -- 73
2019-11-27 14:00:00 9.3 22 Oeste 42 Oeste 0 -- -- 71
2019-11-27 06:00:00 -- -- -- -- -- -- -- -- --
2019-11-27 05:00:00 5.6 13 Sudoeste 42 Sudoeste 0 -- -- 87
2019-11-27 04:00:00 7 26 Oeste 50 Oeste 0 -- -- 90
2019-11-27 03:00:00 7.7 27 Oeste 45 Oeste 0 -- -- 92
2019-11-27 02:00:00 8.1 22 Oeste 43 Oeste 0 -- -- 92
2019-11-27 01:00:00 8.4 30 Oeste 59 Sudoeste 0.2 -- -- 92
2019-11-27 00:00:00 8.6 30 Oeste 55 Oeste 0.6 -- -- 91
2019-11-26 23:00:00 11.1 24 Sudoeste 43 Oeste 0 -- -- 72
2019-11-26 22:00:00 11.2 27 Oeste 49 Sudoeste 0 -- -- 77
2019-11-26 21:00:00 12 22 Sudoeste 48 Sudoeste 0 -- -- 77
2019-11-26 20:00:00 11.6 17 Oeste 50 Sudoeste 0 -- -- 83
2019-11-26 19:00:00 13.5 34 Sudoeste 63 Sudoeste 0 -- -- 69
2019-11-26 18:00:00 14.4 31 Sudoeste 56 Sudoeste 0 -- -- 63
2019-11-26 17:00:00 14 13 Sur 31 Sur 0 -- -- 70
2019-11-26 16:00:00 14.6 15 Sur 28 Sudoeste 0 -- -- 67
2019-11-26 15:00:00 16.8 14 Oeste 31 Oeste 0 -- -- 59
2019-11-26 14:00:00 15.3 19 Oeste 37 Sudoeste 0 -- -- 63
2019-11-26 13:00:00 14.6 13 Sudoeste 23 Sudoeste 0 -- -- 69
2019-11-26 12:00:00 12.4 5 Sur 13 Noroeste 0.2 -- -- 86
2019-11-26 11:00:00 13.2 4 Oeste 18 Sudoeste 0 -- -- 81
2019-11-26 10:00:00 13.2 5 Sudoeste 13 Sur 0 -- -- 81
2019-11-26 09:00:00 12.1 8 Sur 21 Sudoeste 0 -- -- 86
2019-11-26 08:00:00 11.1 12 Sudoeste 26 Sudoeste 0 -- -- 91
2019-11-26 07:00:00 9.7 9 Sudoeste 18 Sudoeste 0 -- -- 90
2019-11-26 06:00:00 9.2 8 Sudoeste 21 Sudoeste 0 -- -- 73
2019-11-26 05:00:00 6.4 9 Sudeste 15 Sudeste 0 -- -- 84
2019-11-26 04:00:00 6.2 5 Este 10 Este 0 -- -- 91
2019-11-26 03:00:00 6.5 2 Nordeste 9 Sudeste 0 -- -- 88
2019-11-26 02:00:00 7.6 6 Oeste 13 Oeste 0 -- -- 88
2019-11-26 01:00:00 8.6 9 Sudoeste 21 Sudoeste 0 -- -- 84
2019-11-26 00:00:00 9 13 Oeste 23 Oeste 0 -- -- 83
2019-11-25 23:00:00 8.6 14 Oeste 27 Oeste 0 -- -- 86
2019-11-25 22:00:00 8.4 14 Oeste 29 Oeste 0 -- -- 89
2019-11-25 21:00:00 9 19 Oeste 34 Oeste 0 -- -- 88
2019-11-25 20:00:00 9.1 12 Oeste 27 Oeste 0 -- -- 89
2019-11-25 19:00:00 9.6 14 Oeste 26 Sudoeste 0 -- -- 86
2019-11-25 18:00:00 9.5 9 Oeste 21 Oeste 0 -- -- 87
2019-11-25 17:00:00 10 15 Oeste 28 Oeste 0 -- -- 83
2019-11-25 16:00:00 10.2 19 Oeste 34 Oeste 0 -- -- 80
2019-11-25 15:00:00 11.3 21 Oeste 45 Oeste 0 -- -- 73
2019-11-25 14:00:00 11 21 Oeste 40 Oeste 0 -- -- 78
2019-11-25 13:00:00 10.5 22 Oeste 37 Oeste 0 -- -- 83
2019-11-25 12:00:00 10.1 23 Oeste 36 Sudoeste 0 -- -- 85
2019-11-25 11:00:00 9.6 22 Oeste 38 Oeste 0 -- -- 88
2019-11-25 10:00:00 9 23 Oeste 37 Sudoeste 0 -- -- 89
2019-11-25 09:00:00 8.5 14 Sudoeste 33 Sudoeste 0 -- -- 94
2019-11-25 08:00:00 8.5 18 Oeste 38 Oeste 0 -- -- 95
2019-11-25 07:00:00 8.4 22 Oeste 42 Oeste 0 -- -- 97
2019-11-25 06:00:00 8.4 20 Oeste 36 Oeste 0 -- -- 97
2019-11-25 05:00:00 8.6 21 Oeste 50 Oeste 0 -- -- 95
2019-11-25 04:00:00 9.3 22 Oeste 43 Sudoeste 0.4 -- -- 97
2019-11-25 03:00:00 9.8 24 Oeste 49 Sudoeste 0.4 -- -- 95
2019-11-25 02:00:00 9.4 23 Sudoeste 37 Oeste 0.6 -- -- 96
2019-11-25 01:00:00 10 27 Sudoeste 49 Sudoeste 0.4 -- -- 87
2019-11-25 00:00:00 9.3 18 Sudoeste 37 Sudoeste 0 -- -- 86
2019-11-24 23:00:00 8.3 17 Sudoeste 37 Oeste 0 -- -- 90
2019-11-24 22:00:00 8.1 14 Sudoeste 32 Sudoeste 0 -- -- 87
2019-11-24 21:00:00 7 16 Sudoeste 30 Sudoeste 0 -- -- 90
2019-11-24 20:00:00 5.7 5 Sudoeste 27 Sudoeste 0 -- -- 91
2019-11-24 19:00:00 5.8 15 Sudoeste 30 Oeste 0 -- -- 82
2019-11-24 18:00:00 5.9 10 Oeste 28 Sudoeste 0 -- -- 81
2019-11-24 17:00:00 5.9 13 Oeste 26 Oeste 0 -- -- 78
2019-11-24 16:00:00 6.1 19 Oeste 31 Oeste 0 -- -- 76
2019-11-24 15:00:00 6.2 16 Oeste 30 Oeste 0 -- -- 75
2019-11-24 14:00:00 6 17 Sudoeste 32 Sudoeste 0 -- -- 75
2019-11-24 13:00:00 4.7 16 Oeste 26 Oeste 0 -- -- 81
2019-11-24 12:00:00 3.5 14 Oeste 24 Oeste 0 -- -- 87
2019-11-24 11:00:00 2.8 15 Oeste 25 Oeste 0 -- -- 91
2019-11-24 10:00:00 2.2 12 Oeste 25 Oeste 0 -- -- 94
2019-11-24 09:00:00 2.1 17 Oeste 31 Oeste 0 -- -- 97
2019-11-24 08:00:00 2 18 Oeste 35 Oeste 0 -- -- 98
2019-11-24 07:00:00 2.1 17 Oeste 33 Oeste 0 -- -- 98
2019-11-24 06:00:00 2.4 21 Oeste 39 Oeste 0 -- -- 98
2019-11-24 05:00:00 2.5 20 Oeste 46 Oeste 0 -- -- 97
2019-11-24 04:00:00 2.8 27 Oeste 42 Oeste 0 -- -- 97
2019-11-24 03:00:00 3 24 Oeste 41 Sudoeste 0 -- -- 95
2019-11-24 02:00:00 3.1 24 Oeste 46 Oeste 0 -- -- 96
2019-11-24 01:00:00 3.2 22 Oeste 40 Oeste 0 -- -- 94
2019-11-24 00:00:00 3.5 20 Oeste 40 Sudoeste 0 -- -- 92
2019-11-23 23:00:00 3.9 20 Oeste 42 Oeste 0 -- -- 88
2019-11-23 22:00:00 4.2 21 Oeste 33 Oeste 0 -- -- 84
2019-11-23 21:00:00 4.6 16 Oeste 35 Oeste 0 -- -- 85
2019-11-23 20:00:00 4.8 17 Oeste 37 Oeste 0 -- -- 86
2019-11-23 19:00:00 4.8 18 Oeste 39 Oeste 0 -- -- 84
2019-11-23 18:00:00 5.5 23 Oeste 43 Oeste 0 -- -- 82
2019-11-23 17:00:00 5.9 20 Oeste 39 Oeste 0 -- -- 77
2019-11-23 16:00:00 5.7 19 Oeste 32 Oeste 0 -- -- 80
2019-11-23 15:00:00 5.8 24 Oeste 45 Sudoeste 0 -- -- 76
2019-11-23 14:00:00 5.5 21 Oeste 47 Oeste 0 -- -- 85
2019-11-23 13:00:00 4.8 24 Oeste 50 Oeste 0 -- -- 87
2019-11-23 12:00:00 3.8 29 Oeste 51 Oeste 0 -- -- 89
2019-11-23 11:00:00 3.1 33 Oeste 53 Oeste 0 -- -- 91
2019-11-23 10:00:00 1.8 33 Oeste 55 Oeste 0 -- -- 95
2019-11-23 09:00:00 1.9 31 Oeste 58 Oeste 0 -- -- 94
2019-11-23 08:00:00 2.2 33 Oeste 54 Oeste 0 -- -- 94
2019-11-23 07:00:00 2.5 30 Oeste 54 Sudoeste 0 -- -- 95
2019-11-23 06:00:00 3 32 Oeste 55 Oeste 0.2 -- -- 97
2019-11-23 05:00:00 2.7 29 Oeste 62 Sudoeste 2 -- -- 97
2019-11-23 04:00:00 2.6 28 Oeste 58 Oeste 1 -- -- 95
2019-11-23 03:00:00 3.5 30 Oeste 54 Oeste 0 -- -- 92
2019-11-23 02:00:00 3.6 24 Oeste 50 Oeste 0.4 -- -- 95
2019-11-23 01:00:00 3.7 32 Oeste 70 Oeste 2.8 -- -- 92
2019-11-23 00:00:00 5 27 Oeste 55 Oeste 2 -- -- 94
2019-11-22 23:00:00 5.8 21 Oeste 39 Oeste 0.6 -- -- 91
2019-11-22 22:00:00 6.3 25 Sudoeste 45 Oeste 0.2 -- -- 85
2019-11-22 21:00:00 6.3 21 Oeste 39 Oeste 0 -- -- 85
2019-11-22 20:00:00 6.5 23 Oeste 42 Oeste 0 -- -- 87
2019-11-22 19:00:00 6.9 20 Oeste 62 Oeste 0.8 -- -- 88
2019-11-22 18:00:00 8.1 13 Sur 40 Sudoeste 0.6 -- -- 88
2019-11-22 17:00:00 11.7 17 Sudoeste 50 Sudoeste 0 -- -- 64
2019-11-22 16:00:00 13.5 30 Sudoeste 62 Sudoeste 0.2 -- -- 57
2019-11-22 15:00:00 11.3 32 Sur 51 Sur 0 -- -- 73
2019-11-22 14:00:00 8.9 30 Sur 50 Sur 0.8 -- -- 77
2019-11-22 13:00:00 9.3 31 Sur 57 Sur 0 -- -- 74
2019-11-22 12:00:00 9.5 37 Sur 70 Sudeste 0 -- -- 71
2019-11-22 11:00:00 9.7 41 Sur 62 Sur 0 -- -- 67
2019-11-22 10:00:00 8 42 Sur 62 Sur 0 -- -- 72
2019-11-22 09:00:00 6.8 35 Sur 52 Sur 0.4 -- -- 79
2019-11-22 08:00:00 6.7 27 Sur 45 Sur 0 -- -- 79
2019-11-22 07:00:00 6.8 26 Sur 42 Sur 0 -- -- 76
2019-11-22 06:00:00 6.3 21 Sur 36 Sur 0.2 -- -- 79
2019-11-22 05:00:00 6.1 16 Sur 32 Sur 0 -- -- 81
2019-11-22 04:00:00 6.1 19 Sur 32 Sur 0 -- -- 80
2019-11-22 03:00:00 5.8 17 Sur 29 Sur 0 -- -- 80
2019-11-22 02:00:00 5 13 Sur 21 Sur 0 -- -- 81
2019-11-22 01:00:00 4.2 8 Sudeste 15 Sur 0 -- -- 83
2019-11-22 00:00:00 3.9 10 Sudeste 15 Sudeste 0 -- -- 87
2019-11-21 23:00:00 3.1 9 Sudeste 15 Sudeste 0 -- -- 88
2019-11-21 22:00:00 2.9 7 Sudeste 9 Sudeste 0 -- -- 93
2019-11-21 21:00:00 3.5 5 Sudeste 7 Sudeste 0 -- -- 92
2019-11-21 20:00:00 4.2 4 Sur 8 Sur 0 -- -- 94
2019-11-21 19:00:00 4.4 3 Sur 11 Oeste 0 -- -- 93
2019-11-21 18:00:00 5.3 5 Sur 8 Sudeste 0 -- -- 92
2019-11-21 17:00:00 5.9 5 Sudoeste 16 Sudoeste 0 -- -- 90
2019-11-21 16:00:00 5.4 8 Oeste 25 Oeste 1 -- -- 94
2019-11-21 15:00:00 6.4 15 Sudoeste 28 Sudoeste 0.2 -- -- 84
2019-11-21 14:00:00 5.9 16 Sudoeste 23 Oeste 0.8 -- -- 95
2019-11-21 13:00:00 5.5 12 Sudoeste 25 Sudoeste 0 -- -- 92
2019-11-21 12:00:00 5.5 12 Sudoeste 30 Sudoeste 0 -- -- 90
2019-11-21 11:00:00 4.7 16 Sudoeste 31 Oeste 0.2 -- -- 92
2019-11-21 10:00:00 4.3 5 Sur 14 Sudoeste 0.2 -- -- 93
2019-11-21 09:00:00 3.7 6 Sur 19 Sudoeste 0.2 -- -- 92
2019-11-21 08:00:00 3.5 4 Sudeste 8 Sudeste 0.2 -- -- 90
2019-11-21 07:00:00 3.6 5 Sudoeste 11 Sudoeste 0 -- -- 88
2019-11-21 06:00:00 3.2 5 Sudoeste 12 Sudoeste 0 -- -- 88
2019-11-21 05:00:00 3.2 3 Sur 25 Oeste 0 -- -- 89
2019-11-21 04:00:00 3.1 8 Sudoeste 13 Sudoeste 0 -- -- 90
2019-11-21 03:00:00 2.6 8 Sudoeste 14 Sudoeste 0 -- -- 91
2019-11-21 02:00:00 3 4 Sur 9 Sudoeste 0 -- -- 92
2019-11-21 01:00:00 3.3 6 Sudoeste 13 Sudoeste 0 -- -- 93
2019-11-21 00:00:00 3.4 5 Sudeste 7 Sudeste 0.2 -- -- 95
2019-11-20 23:00:00 3.8 3 Este 7 Sudeste 0.2 -- -- 95
2019-11-20 22:00:00 3.8 4 Sur 13 Sudoeste 0.4 -- -- 95
2019-11-20 21:00:00 4.1 9 Sudoeste 15 Sudoeste 0.2 -- -- 92
2019-11-20 20:00:00 4 5 Sur 10 Sudeste 0 -- -- 90
2019-11-20 19:00:00 3.8 6 Sudeste 10 Sudeste 0.6 -- -- 92
2019-11-20 18:00:00 4.2 3 Este 6 Oeste 1.2 -- -- 90
2019-11-20 17:00:00 4.6 2 Sudoeste 9 Sur 0.8 -- -- 89
2019-11-20 16:00:00 4.8 6 Sudeste 12 Oeste 0.6 -- -- 85
2019-11-20 15:00:00 5.9 4 Oeste 17 Oeste 0.2 -- -- 81
2019-11-20 14:00:00 6.6 3 Oeste 9 Noroeste 0 -- -- 70
2019-11-20 13:00:00 6 0 Calma 14 Oeste 0 -- -- 73
2019-11-20 12:00:00 5.8 11 Noroeste 22 Noroeste 0 -- -- 68
2019-11-20 11:00:00 7.2 3 Oeste 10 Este 0 -- -- 56
2019-11-20 10:00:00 5.7 4 Sudeste 12 Sudeste 0 -- -- 65
2019-11-20 09:00:00 2.2 7 Sudeste 9 Sudeste 0 -- -- 71
2019-11-20 08:00:00 1.1 9 Este 13 Sudeste 0 -- -- 71
2019-11-20 07:00:00 1.2 8 Sudeste 10 Sudeste 0 -- -- 72
2019-11-20 06:00:00 1.1 2 Sudeste 10 Sudeste 0 -- -- 75
2019-11-20 05:00:00 1.5 4 Sudeste 8 Sudeste 0 -- -- 75
2019-11-20 04:00:00 1.5 8 Sudeste 10 Sudeste 0 -- -- 75
2019-11-20 03:00:00 0.9 4 Sudeste 12 Sudeste 0 -- -- 77
2019-11-20 02:00:00 1.2 8 Sudeste 11 Sudeste 0 -- -- 70
2019-11-20 01:00:00 0.6 9 Sudeste 10 Sudeste 0 -- -- 78
2019-11-20 00:00:00 0.7 3 Sudeste 11 Sudeste 0 -- -- 77
2019-11-19 23:00:00 1.1 9 Sudeste 10 Sudeste 0 -- -- 73
2019-11-19 22:00:00 1.3 7 Sudeste 9 Sudeste 0 -- -- 78
2019-11-19 21:00:00 1.4 8 Sudeste 10 Sudeste 0 -- -- 89
2019-11-19 20:00:00 2.1 7 Sudeste 9 Sudeste 0 -- -- 89
2019-11-19 19:00:00 2.4 6 Sudeste 7 Sudeste 0 -- -- 88
2019-11-19 18:00:00 4 0 Calma 9 Oeste 0 -- -- 81
2019-11-19 17:00:00 5.2 6 Noroeste 17 Noroeste 0 -- -- 77
2019-11-19 16:00:00 5.9 12 Oeste 19 Oeste 0 -- -- 69
2019-11-19 15:00:00 6.5 11 Noroeste 19 Oeste 0 -- -- 72
2019-11-19 14:00:00 6.9 8 Noroeste 14 Oeste 0 -- -- 64
2019-11-19 13:00:00 6.5 6 Sudoeste 12 Sur 0 -- -- 66
2019-11-19 12:00:00 5.7 6 Sudoeste 15 Sudoeste 0 -- -- 70
2019-11-19 11:00:00 4.6 8 Sudoeste 13 Sudoeste 0 -- -- 82
2019-11-19 10:00:00 1.5 6 Sur 9 Sur 0 -- -- 93
2019-11-19 09:00:00 -0.6 3 Sudeste 4 Sudeste 0 -- -- 95
2019-11-19 08:00:00 -1 3 Sudeste 5 Sudeste 0 -- -- 94
2019-11-19 07:00:00 -0.7 4 Sudeste 8 Sudeste 0 -- -- 93
2019-11-19 06:00:00 -0.7 5 Sudeste 8 Sudeste 0 -- -- 94
2019-11-19 05:00:00 -0.8 4 Sudeste 6 Sudeste 0 -- -- 96
2019-11-19 04:00:00 -0.5 0 Calma 6 Este 0 -- -- 95
2019-11-19 03:00:00 0.2 4 Sudeste 5 Este 0 -- -- 96
2019-11-19 02:00:00 0.4 4 Sudeste 5 Este 0 -- -- 97
2019-11-19 01:00:00 0.2 3 Sudeste 7 Sudeste 0 -- -- 96
2019-11-19 00:00:00 0.8 5 Sudeste 8 Noroeste 0 -- -- 96
2019-11-18 23:00:00 1.6 5 Noroeste 8 Noroeste 0 -- -- 95
2019-11-18 22:00:00 2.2 0 Calma 5 Oeste 0 -- -- 96
2019-11-18 21:00:00 2 0 Calma 3 Oeste 0 -- -- 97
2019-11-18 20:00:00 1.8 2 Sur 4 Oeste 0 -- -- 97
2019-11-18 19:00:00 1.7 0 Calma 6 Oeste 0 -- -- 97
2019-11-18 18:00:00 2.5 3 Oeste 6 Oeste 0 -- -- 97
2019-11-18 17:00:00 2.8 0 Calma 9 Norte 0.4 -- -- 96
2019-11-18 16:00:00 3 5 Noroeste 18 Noroeste 0 -- -- 94
2019-11-18 15:00:00 2.8 8 Noroeste 18 Oeste 0 -- -- 91
2019-11-18 14:00:00 2.9 8 Noroeste 15 Noroeste 0 -- -- 91
2019-11-18 13:00:00 2.3 8 Noroeste 19 Noroeste 0 -- -- 93
2019-11-18 12:00:00 1.6 11 Oeste 19 Oeste 0 -- -- 96
2019-11-18 11:00:00 1.4 11 Noroeste 16 Noroeste 0 -- -- 97
2019-11-18 10:00:00 1.4 10 Noroeste 16 Noroeste 0 -- -- 98
2019-11-18 09:00:00 1 6 Noroeste 13 Oeste 0 -- -- 98
2019-11-18 08:00:00 1.1 4 Noroeste 7 Noroeste 0 -- -- 99
2019-11-18 07:00:00 1.1 2 Oeste 6 Noroeste 0 -- -- 99
2019-11-18 06:00:00 1 6 Noroeste 13 Noroeste 0 -- -- 99
2019-11-18 05:00:00 1.1 4 Noroeste 17 Noroeste 0 -- -- 99
2019-11-18 04:00:00 1.2 12 Noroeste 19 Noroeste 0 -- -- 98
2019-11-18 03:00:00 1.5 12 Oeste 22 Oeste 0 -- -- 97
2019-11-18 02:00:00 1.9 10 Noroeste 26 Noroeste 0 -- -- 96
2019-11-18 01:00:00 2.3 18 Oeste 28 Oeste 0 -- -- 95
2019-11-18 00:00:00 1.9 12 Oeste 18 Oeste 0 -- -- 94
2019-11-17 23:00:00 2.2 6 Sudoeste 25 Oeste 0 -- -- 92
2019-11-17 22:00:00 3.3 13 Oeste 26 Oeste 0 -- -- 94
2019-11-17 21:00:00 4.1 14 Noroeste 30 Oeste 0 -- -- 95
2019-11-17 20:00:00 5.3 16 Oeste 29 Oeste 0 -- -- 97
2019-11-17 19:00:00 5.6 9 Oeste 21 Oeste 0.2 -- -- 98
2019-11-17 18:00:00 5.8 13 Oeste 34 Noroeste 1.2 -- -- 97
2019-11-17 17:00:00 5.8 23 Oeste 48 Oeste 1.4 -- -- 96
2019-11-17 16:00:00 6.5 26 Oeste 47 Oeste 0.8 -- -- 99
2019-11-17 15:00:00 6.3 22 Oeste 46 Noroeste 0 -- -- 99
2019-11-17 14:00:00 6.3 28 Oeste 49 Oeste 1.2 -- -- 99
2019-11-17 13:00:00 5.8 15 Oeste 32 Oeste 1.8 -- -- 98
2019-11-17 12:00:00 5.2 21 Sudoeste 33 Sudoeste 1 -- -- 98
2019-11-17 11:00:00 4.8 17 Sudoeste 30 Sudoeste 0 -- -- 97
2019-11-17 10:00:00 4.2 13 Sudoeste 21 Sudoeste 0 -- -- 96
2019-11-17 09:00:00 3.1 6 Oeste 24 Sudoeste 0 -- -- 91
2019-11-17 08:00:00 2.5 11 Sudoeste 26 Sudoeste 0 -- -- 91
2019-11-17 07:00:00 2 9 Sudoeste 24 Sudoeste 0 -- -- 90
2019-11-17 06:00:00 1.7 9 Oeste 21 Oeste 0 -- -- 91
2019-11-17 05:00:00 1.4 15 Sudoeste 26 Sudoeste 0 -- -- 90
2019-11-17 04:00:00 1.4 13 Oeste 29 Sudoeste 0 -- -- 90
2019-11-17 03:00:00 1.3 13 Oeste 24 Oeste 0 -- -- 90
2019-11-17 02:00:00 0.9 10 Oeste 22 Sudoeste 0 -- -- 90
2019-11-17 01:00:00 1.3 9 Oeste 20 Sudoeste 0 -- -- 88
2019-11-17 00:00:00 1.4 10 Oeste 22 Oeste 0 -- -- 87
2019-11-16 23:00:00 1.2 11 Oeste 27 Sudoeste 0 -- -- 87
2019-11-16 22:00:00 1.4 13 Oeste 24 Oeste 0 -- -- 87
2019-11-16 21:00:00 1.3 10 Oeste 19 Sudoeste 0 -- -- 89
2019-11-16 20:00:00 1.6 11 Oeste 24 Oeste 0 -- -- 87
2019-11-16 19:00:00 2.6 16 Oeste 35 Oeste 0 -- -- 81
2019-11-16 18:00:00 3.3 12 Oeste 28 Oeste 0 -- -- 76
2019-11-16 17:00:00 4 15 Oeste 28 Oeste 0 -- -- 73
2019-11-16 16:00:00 3.7 17 Oeste 34 Sudoeste 0 -- -- 74
2019-11-16 15:00:00 3.7 19 Oeste 32 Oeste 0 -- -- 73
2019-11-16 14:00:00 2.7 13 Oeste 31 Sudoeste 0 -- -- 77
2019-11-16 13:00:00 2.2 12 Oeste 27 Sudoeste 0 -- -- 80
2019-11-16 12:00:00 1.5 13 Oeste 24 Oeste 0 -- -- 85
2019-11-16 11:00:00 0.6 11 Oeste 25 Oeste 0.2 -- -- 92
2019-11-16 10:00:00 0.2 12 Oeste 25 Sudoeste 0 -- -- 91
2019-11-16 09:00:00 -0.7 8 Oeste 17 Oeste 0 -- -- 96
2019-11-16 08:00:00 -0.9 10 Oeste 22 Oeste 0 -- -- 96
2019-11-16 07:00:00 -0.8 13 Oeste 22 Oeste 0 -- -- 96
2019-11-16 06:00:00 -0.7 8 Oeste 14 Oeste 0 -- -- 97
2019-11-16 05:00:00 -0.8 9 Oeste 15 Oeste 0 -- -- 97
2019-11-16 04:00:00 -0.3 6 Oeste 18 Oeste 0 -- -- 95
2019-11-16 03:00:00 -0.1 8 Noroeste 15 Oeste 0 -- -- 95
2019-11-16 02:00:00 0.1 12 Oeste 22 Oeste 0 -- -- 94
2019-11-16 01:00:00 0.5 11 Oeste 23 Oeste 0.2 -- -- 94
2019-11-16 00:00:00 0.6 9 Oeste 17 Oeste 0 -- -- 96
2019-11-15 23:00:00 0.4 7 Oeste 19 Oeste 0 -- -- 97
2019-11-15 22:00:00 0.3 9 Oeste 24 Oeste 0 -- -- 95
2019-11-15 21:00:00 1.8 14 Oeste 23 Oeste 0 -- -- 83
2019-11-15 20:00:00 2.4 12 Oeste 25 Oeste 0 -- -- 83
2019-11-15 19:00:00 2.6 12 Oeste 26 Noroeste 0 -- -- 82
2019-11-15 18:00:00 2.8 16 Oeste 31 Oeste 0 -- -- 81
2019-11-15 17:00:00 2.9 18 Oeste 38 Oeste 0 -- -- 78
2019-11-15 16:00:00 2.9 21 Oeste 41 Oeste 0 -- -- 81
2019-11-15 15:00:00 2.6 22 Oeste 37 Oeste 0 -- -- 84
2019-11-15 14:00:00 2.2 21 Oeste 36 Oeste 0.2 -- -- 88
2019-11-15 13:00:00 1.6 20 Oeste 30 Oeste 0.8 -- -- 99
2019-11-15 12:00:00 0.4 13 Oeste 27 Oeste 0.4 -- -- 100
2019-11-15 11:00:00 -0.2 17 Oeste 27 Oeste 0 -- -- 100
2019-11-15 10:00:00 -0.5 18 Oeste 35 Oeste 0 -- -- 100
2019-11-15 09:00:00 -0.4 15 Oeste 24 Oeste 0 -- -- 100
2019-11-15 08:00:00 -0.1 16 Oeste 29 Oeste 0 -- -- 100
2019-11-15 07:00:00 -0.1 15 Oeste 32 Oeste 0 -- -- 100
2019-11-15 06:00:00 0.1 14 Oeste 31 Oeste 0 -- -- 100
2019-11-15 05:00:00 0 17 Oeste 30 Oeste 0.2 -- -- 99
2019-11-15 04:00:00 0.2 14 Oeste 31 Oeste 0 -- -- 99
2019-11-15 03:00:00 0.2 14 Oeste 30 Oeste 0.2 -- -- 98
2019-11-15 02:00:00 0.4 14 Oeste 35 Noroeste 0.2 -- -- 97
2019-11-15 01:00:00 0.6 18 Oeste 37 Noroeste 0 -- -- 97
2019-11-15 00:00:00 0.6 19 Noroeste 41 Oeste 0.2 -- -- 97
2019-11-14 23:00:00 0.8 19 Oeste 44 Oeste 0.2 -- -- 98
2019-11-14 22:00:00 1 24 Oeste 44 Oeste 0.6 -- -- 98
2019-11-14 21:00:00 1 22 Noroeste 48 Oeste 1 -- -- 98
2019-11-14 20:00:00 0.9 15 Noroeste 35 Noroeste 0.2 -- -- 99
2019-11-14 19:00:00 0 11 Noroeste 46 Oeste 0.6 -- -- 98
2019-11-14 18:00:00 1.2 31 Oeste 60 Oeste 1 -- -- 98
2019-11-14 17:00:00 0.4 22 Sudoeste 40 Sudoeste 0.2 -- -- 98
2019-11-14 16:00:00 1.8 14 Sudoeste 56 Oeste 0.2 -- -- 89
2019-11-14 15:00:00 1.9 17 Sudoeste 57 Sudoeste 0.2 -- -- 94
2019-11-14 14:00:00 2.4 25 Oeste 50 Oeste 0 -- -- 83
2019-11-14 13:00:00 2.9 30 Oeste 51 Oeste 0 -- -- 83
2019-11-14 12:00:00 1.8 25 Oeste 41 Oeste 0 -- -- 89
2019-11-14 11:00:00 1.6 22 Oeste 34 Oeste 0 -- -- 95
2019-11-14 10:00:00 1.5 14 Oeste 34 Oeste 0.6 -- -- 97
2019-11-14 09:00:00 0.7 12 Oeste 24 Oeste 0.2 -- -- 97
2019-11-14 08:00:00 0.6 8 Sudoeste 24 Noroeste 0.6 -- -- 98
2019-11-14 07:00:00 1 18 Noroeste 44 Oeste 1.8 -- -- 97
2019-11-14 06:00:00 2 28 Oeste 67 Oeste 2 -- -- 94
2019-11-14 05:00:00 4.5 28 Sudoeste 50 Sudoeste 0.4 -- -- 92
2019-11-14 04:00:00 5.4 27 Sudoeste 56 Oeste 0 -- -- 82
2019-11-14 03:00:00 5.4 28 Sudoeste 50 Sudoeste 0 -- -- 81
2019-11-14 02:00:00 5.4 25 Oeste 54 Sudoeste 0 -- -- 85
2019-11-14 01:00:00 6 23 Oeste 46 Oeste 0 -- -- 87
2019-11-14 00:00:00 7.1 29 Oeste 50 Oeste 0 -- -- 89
2019-11-13 23:00:00 7.9 23 Oeste 44 Oeste 0 -- -- 88
2019-11-13 22:00:00 7.9 19 Oeste 35 Sudoeste 0 -- -- 87
2019-11-13 21:00:00 8.1 22 Oeste 37 Oeste 0 -- -- 84
2019-11-13 20:00:00 8.2 15 Sudoeste 27 Sudoeste 0 -- -- 84
2019-11-13 19:00:00 7 9 Sur 14 Oeste 0 -- -- 86
2019-11-13 18:00:00 7.9 10 Oeste 21 Oeste 0 -- -- 80
2019-11-13 17:00:00 9.2 12 Oeste 23 Sudoeste 0 -- -- 78
2019-11-13 16:00:00 9.5 14 Oeste 27 Noroeste 0 -- -- 75
2019-11-13 15:00:00 8.3 13 Noroeste 20 Noroeste 0 -- -- 80
2019-11-13 14:00:00 8.7 14 Noroeste 21 Noroeste 0 -- -- 79
2019-11-13 13:00:00 8.3 9 Oeste 19 Noroeste 0 -- -- 85
2019-11-13 12:00:00 7.2 7 Noroeste 16 Noroeste 0.2 -- -- 91
2019-11-13 11:00:00 6.3 10 Norte 17 Norte 0 -- -- 92
2019-11-13 10:00:00 5.8 5 Norte 19 Norte 0 -- -- 96
2019-11-13 09:00:00 5.9 9 Norte 50 Norte 0.2 -- -- 99
2019-11-13 08:00:00 8.7 24 Noroeste 49 Noroeste 0.6 -- -- 100
2019-11-13 07:00:00 8.9 26 Noroeste 50 Oeste 3.2 -- -- 100
2019-11-13 06:00:00 8.8 30 Oeste 51 Oeste 0 -- -- 100
2019-11-13 05:00:00 8.5 22 Oeste 47 Oeste 0.8 -- -- 99
2019-11-13 04:00:00 8.3 24 Oeste 54 Oeste 1.6 -- -- 99
2019-11-13 03:00:00 8.2 35 Oeste 55 Oeste 3.6 -- -- 99
2019-11-13 02:00:00 7.8 25 Oeste 56 Oeste 2.8 -- -- 99
2019-11-13 01:00:00 7.5 23 Oeste 46 Sudoeste 1 -- -- 99
2019-11-13 00:00:00 7.2 25 Oeste 41 Oeste 0.4 -- -- 98
2019-11-12 23:00:00 6.7 19 Sudoeste 45 Sudoeste 1.4 -- -- 97
2019-11-12 22:00:00 6.4 22 Oeste 38 Sudoeste 1 -- -- 96
2019-11-12 21:00:00 5.8 19 Sudoeste 33 Sudoeste 1.2 -- -- 96
2019-11-12 20:00:00 4.6 11 Sudoeste 26 Oeste 1 -- -- 96
2019-11-12 19:00:00 4.9 12 Sudoeste 27 Sudoeste 0.6 -- -- 90
2019-11-12 18:00:00 5.8 10 Sudoeste 28 Sudoeste 0 -- -- 78
2019-11-12 17:00:00 6.5 14 Oeste 29 Sudoeste 0 -- -- 72
2019-11-12 16:00:00 6.6 18 Oeste 30 Oeste 0 -- -- 73
2019-11-12 15:00:00 6 17 Oeste 31 Oeste 0 -- -- 75
2019-11-12 14:00:00 5.8 19 Oeste 32 Oeste 0 -- -- 78
2019-11-12 13:00:00 5.5 14 Oeste 23 Oeste 0 -- -- 81
2019-11-12 12:00:00 4.7 15 Oeste 24 Noroeste 0 -- -- 80
2019-11-12 11:00:00 4.2 11 Noroeste 24 Oeste 0 -- -- 83
2019-11-12 10:00:00 3.2 11 Oeste 18 Sudoeste 0 -- -- 91
2019-11-12 09:00:00 1.6 4 Oeste 8 Sudoeste 0 -- -- 96
2019-11-12 08:00:00 1 3 Noroeste 6 Noroeste 0 -- -- 95
2019-11-12 07:00:00 1.6 0 Calma 3 Noroeste 0 -- -- 94
2019-11-12 06:00:00 1.7 0 Calma 2 Sur 0 -- -- 95
2019-11-12 05:00:00 1.4 0 Calma 4 Sudoeste 0 -- -- 96
2019-11-12 04:00:00 1 3 Sudeste 4 Sudeste 0 -- -- 95
2019-11-12 03:00:00 1.5 0 Calma 3 Sudeste 0 -- -- 95
2019-11-12 02:00:00 1.8 0 Calma 4 Sur 0 -- -- 95
2019-11-12 01:00:00 2.1 2 Nordeste 5 Sudoeste 0 -- -- 92
2019-11-12 00:00:00 2.8 3 Oeste 8 Oeste 0 -- -- 93
2019-11-11 23:00:00 3 4 Nordeste 10 Norte 0 -- -- 92
2019-11-11 22:00:00 2.9 4 Norte 11 Norte 0 -- -- 95
2019-11-11 21:00:00 3.2 3 Este 12 Nordeste 0 -- -- 92
2019-11-11 20:00:00 4.3 0 Calma 8 Norte 0 -- -- 92
2019-11-11 19:00:00 5.1 3 Norte 16 Nordeste 0 -- -- 89
2019-11-11 18:00:00 5.8 9 Norte 19 Nordeste 0 -- -- 91
2019-11-11 17:00:00 6.1 10 Nordeste 22 Noroeste 0 -- -- 94
2019-11-11 16:00:00 6.5 14 Norte 28 Norte 0 -- -- 96
2019-11-11 15:00:00 7.1 13 Noroeste 34 Oeste 0.2 -- -- 98
2019-11-11 14:00:00 7.1 18 Noroeste 28 Noroeste 0 -- -- 97
2019-11-11 13:00:00 7.1 11 Oeste 32 Oeste 0 -- -- 95
2019-11-11 12:00:00 6.1 11 Oeste 27 Sudoeste 0 -- -- 95
2019-11-11 11:00:00 5.2 14 Oeste 28 Oeste 0 -- -- 97
2019-11-11 10:00:00 4 14 Oeste 22 Oeste 0 -- -- 96
2019-11-11 09:00:00 3.4 8 Oeste 17 Oeste 0 -- -- 97
2019-11-11 08:00:00 2.9 8 Oeste 18 Sudoeste 0 -- -- 98
2019-11-11 07:00:00 2.6 10 Oeste 18 Sudoeste 0 -- -- 98
2019-11-11 06:00:00 2.2 6 Oeste 15 Oeste 0 -- -- 99
2019-11-11 05:00:00 2.1 4 Oeste 14 Sudoeste 0 -- -- 99
2019-11-11 04:00:00 2.1 7 Oeste 14 Oeste 0 -- -- 99
2019-11-11 03:00:00 2.1 7 Oeste 22 Oeste 0 -- -- 99
2019-11-11 02:00:00 2.1 10 Oeste 21 Oeste 0 -- -- 99
2019-11-11 01:00:00 2.1 10 Oeste 19 Oeste 0 -- -- 98
2019-11-11 00:00:00 1.4 3 Oeste 9 Sudoeste 0 -- -- 98
2019-11-10 23:00:00 1.2 4 Sudoeste 9 Sudoeste 0 -- -- 98
2019-11-10 22:00:00 1.8 4 Oeste 15 Noroeste 0 -- -- 97
2019-11-10 21:00:00 2.2 6 Oeste 13 Noroeste 0 -- -- 98
2019-11-10 20:00:00 2.4 9 Noroeste 20 Oeste 0 -- -- 97
2019-11-10 19:00:00 2.7 9 Noroeste 19 Norte 0 -- -- 97
2019-11-10 18:00:00 2.9 14 Noroeste 27 Noroeste 0.2 -- -- 97
2019-11-10 17:00:00 2.8 16 Norte 41 Norte 1.2 -- -- 96
2019-11-10 16:00:00 3.5 20 Oeste 34 Noroeste 0.2 -- -- 94
2019-11-10 15:00:00 3.2 16 Noroeste 35 Oeste 0.2 -- -- 93
2019-11-10 14:00:00 3.1 18 Oeste 37 Oeste 0 -- -- 93
2019-11-10 13:00:00 3 21 Oeste 41 Oeste 0 -- -- 89
2019-11-10 12:00:00 2.7 18 Oeste 35 Oeste 0 -- -- 89
2019-11-10 11:00:00 1.8 15 Oeste 28 Sudoeste 0 -- -- 92
2019-11-10 10:00:00 1.4 12 Oeste 29 Oeste 0 -- -- 91
2019-11-10 09:00:00 0.9 13 Oeste 27 Oeste 0 -- -- 92
2019-11-10 08:00:00 0.4 15 Oeste 24 Oeste 0 -- -- 91
2019-11-10 07:00:00 0.2 13 Oeste 24 Oeste 0 -- -- 92
2019-11-10 06:00:00 0.5 10 Oeste 25 Oeste 0 -- -- 94
2019-11-10 05:00:00 1.2 10 Oeste 30 Noroeste 0 -- -- 96
2019-11-10 04:00:00 2 20 Noroeste 38 Oeste 0 -- -- 95
2019-11-10 03:00:00 3 27 Noroeste 47 Noroeste 0 -- -- 95
2019-11-10 02:00:00 3.6 25 Noroeste 46 Noroeste 0 -- -- 95
2019-11-10 01:00:00 4.1 24 Noroeste 42 Oeste 0 -- -- 96
2019-11-10 00:00:00 4.7 23 Noroeste 43 Oeste 0 -- -- 98
2019-11-09 23:00:00 5.4 26 Oeste 45 Oeste 0.2 -- -- 97
2019-11-09 22:00:00 5.9 23 Oeste 46 Oeste 0 -- -- 98
2019-11-09 21:00:00 5.9 19 Oeste 35 Sudoeste 0 -- -- 99
2019-11-09 20:00:00 6 16 Oeste 33 Oeste 0.2 -- -- 99
2019-11-09 19:00:00 6 17 Oeste 31 Oeste 0 -- -- 99
2019-11-09 18:00:00 6 17 Oeste 28 Oeste 0 -- -- 98
2019-11-09 17:00:00 6 14 Oeste 35 Sudoeste 0 -- -- 97
2019-11-09 16:00:00 5.9 14 Oeste 33 Sudoeste 0 -- -- 95
2019-11-09 15:00:00 5.3 21 Oeste 41 Oeste 0 -- -- 94
2019-11-09 14:00:00 5.4 18 Oeste 33 Oeste 0.2 -- -- 92
2019-11-09 13:00:00 4.1 15 Oeste 29 Oeste 0 -- -- 94
2019-11-09 12:00:00 3.9 18 Oeste 34 Sudoeste 0 -- -- 88
2019-11-09 11:00:00 3.8 20 Oeste 31 Oeste 0 -- -- 86
2019-11-09 10:00:00 2.8 16 Oeste 32 Oeste 0 -- -- 91
2019-11-09 09:00:00 2.4 16 Oeste 33 Oeste 0 -- -- 91
2019-11-09 08:00:00 2.2 10 Oeste 27 Sudoeste 0 -- -- 93
2019-11-09 07:00:00 2.2 15 Oeste 29 Oeste 0 -- -- 94
2019-11-09 06:00:00 2.1 13 Oeste 33 Sudoeste 0 -- -- 94
2019-11-09 05:00:00 1.9 12 Oeste 24 Oeste 0 -- -- 94
2019-11-09 04:00:00 1.6 14 Oeste 24 Oeste 0 -- -- 94
2019-11-09 03:00:00 1.5 13 Oeste 35 Oeste 0 -- -- 93
2019-11-09 02:00:00 1.7 19 Oeste 32 Oeste 0 -- -- 93
2019-11-09 01:00:00 1.4 10 Oeste 25 Oeste 0 -- -- 92
2019-11-09 00:00:00 1.9 12 Oeste 25 Oeste 0 -- -- 91
2019-11-08 23:00:00 2.5 12 Oeste 29 Oeste 0 -- -- 86
2019-11-08 22:00:00 3.7 19 Oeste 40 Oeste 0 -- -- 77
2019-11-08 21:00:00 4.2 19 Oeste 34 Oeste 0 -- -- 84
2019-11-08 20:00:00 4.6 17 Oeste 32 Sudoeste 0 -- -- 83
2019-11-08 19:00:00 4.6 18 Oeste 41 Oeste 0 -- -- 80
2019-11-08 18:00:00 5.2 21 Oeste 43 Oeste 0 -- -- 76
2019-11-08 17:00:00 5.4 24 Oeste 42 Oeste 0 -- -- 73
2019-11-08 16:00:00 5.3 22 Oeste 40 Oeste 0 -- -- 76
2019-11-08 15:00:00 5 22 Oeste 43 Oeste 0 -- -- 73
2019-11-08 14:00:00 4.8 23 Oeste 45 Oeste 0 -- -- 75
2019-11-08 13:00:00 4.3 26 Oeste 44 Sudoeste 0 -- -- 77
2019-11-08 12:00:00 3.7 18 Oeste 38 Oeste 0 -- -- 86
2019-11-08 11:00:00 1.8 17 Oeste 35 Oeste 0 -- -- 93
2019-11-08 10:00:00 0.6 16 Oeste 30 Oeste 0 -- -- 96
2019-11-08 09:00:00 0.2 15 Oeste 32 Oeste 0 -- -- 96
2019-11-08 08:00:00 0.2 15 Oeste 29 Oeste 0 -- -- 95
2019-11-08 07:00:00 0.3 21 Oeste 36 Oeste 0 -- -- 95
2019-11-08 06:00:00 0.4 23 Oeste 39 Oeste 0 -- -- 94
2019-11-08 05:00:00 0.6 19 Oeste 40 Oeste 0 -- -- 92
2019-11-08 04:00:00 1 24 Oeste 47 Oeste 0 -- -- 90
2019-11-08 03:00:00 1.2 27 Oeste 49 Oeste 0 -- -- 90
2019-11-08 02:00:00 1.3 28 Oeste 42 Oeste 0 -- -- 90
2019-11-08 01:00:00 1.5 18 Oeste 41 Oeste 0 -- -- 91
2019-11-08 00:00:00 1.5 15 Oeste 36 Oeste 0 -- -- 91
2019-11-07 23:00:00 1.3 21 Oeste 42 Oeste 0 -- -- 93
2019-11-07 22:00:00 2 21 Oeste 39 Oeste 0 -- -- 90
2019-11-07 21:00:00 2.3 15 Oeste 32 Oeste 0 -- -- 92
2019-11-07 20:00:00 3 15 Oeste 31 Oeste 0 -- -- 90
2019-11-07 19:00:00 3.1 17 Oeste 46 Oeste 0.4 -- -- 93
2019-11-07 18:00:00 4 18 Oeste 33 Oeste 0.2 -- -- 87
2019-11-07 17:00:00 5.1 18 Oeste 36 Oeste 0 -- -- 76
2019-11-07 16:00:00 6.3 22 Oeste 42 Oeste 0 -- -- 66
2019-11-07 15:00:00 5.6 25 Oeste 42 Oeste 0 -- -- 71
2019-11-07 14:00:00 6 21 Oeste 38 Sudoeste 0.2 -- -- 76
2019-11-07 13:00:00 5.2 15 Oeste 33 Oeste 0 -- -- 88
2019-11-07 12:00:00 4.7 19 Oeste 36 Oeste 0 -- -- 92
2019-11-07 11:00:00 4 20 Oeste 42 Oeste 0 -- -- 94
2019-11-07 10:00:00 4.7 24 Oeste 40 Noroeste 0 -- -- 92
2019-11-07 09:00:00 5.4 24 Oeste 41 Oeste 0 -- -- 93
2019-11-07 08:00:00 6.5 23 Oeste 40 Oeste 0 -- -- 95
2019-11-07 07:00:00 7.2 23 Oeste 40 Oeste 0 -- -- 96
2019-11-07 06:00:00 7.3 24 Oeste 41 Oeste 1.4 -- -- 96
2019-11-07 05:00:00 8 23 Oeste 41 Oeste 0.2 -- -- 99
2019-11-07 04:00:00 8.1 20 Oeste 36 Oeste 0.6 -- -- 99
2019-11-07 03:00:00 7.9 15 Oeste 27 Oeste 0.8 -- -- 99
2019-11-07 02:00:00 7.7 14 Oeste 36 Oeste 0.2 -- -- 98
2019-11-07 01:00:00 7.5 16 Sudoeste 33 Sudoeste 0 -- -- 98
2019-11-07 00:00:00 6.9 15 Sudoeste 27 Sudoeste 0 -- -- 96
2019-11-06 23:00:00 7 16 Sudoeste 28 Sudoeste 0 -- -- 92
2019-11-06 22:00:00 6.5 13 Sudoeste 27 Sudoeste 0 -- -- 93
2019-11-06 21:00:00 6.7 14 Sudoeste 30 Oeste 0 -- -- 89
2019-11-06 20:00:00 6.9 15 Sudoeste 26 Sudoeste 0 -- -- 86
2019-11-06 19:00:00 7 10 Oeste 34 Oeste 0 -- -- 83
2019-11-06 18:00:00 7.6 14 Oeste 33 Sudoeste 0 -- -- 75
2019-11-06 17:00:00 7.8 12 Oeste 28 Sudoeste 0 -- -- 73
2019-11-06 16:00:00 8.8 15 Oeste 29 Oeste 0 -- -- 68
2019-11-06 15:00:00 9.4 17 Oeste 30 Oeste 0 -- -- 69
2019-11-06 14:00:00 8.1 19 Oeste 30 Oeste 0 -- -- 69
2019-11-06 13:00:00 7.2 15 Oeste 33 Oeste 0 -- -- 75
2019-11-06 12:00:00 6.2 17 Oeste 28 Oeste 0 -- -- 81
2019-11-06 11:00:00 5.6 13 Oeste 23 Sudoeste 0 -- -- 83
2019-11-06 10:00:00 4.6 10 Sudoeste 22 Oeste 0 -- -- 92
2019-11-06 09:00:00 3.9 9 Oeste 19 Sudoeste 0 -- -- 95
2019-11-06 08:00:00 3.6 9 Oeste 18 Oeste 0 -- -- 96
2019-11-06 07:00:00 3.5 6 Oeste 12 Oeste 0 -- -- 96
2019-11-06 06:00:00 3.5 4 Oeste 17 Oeste 0 -- -- 96
2019-11-06 05:00:00 3.9 11 Oeste 22 Oeste 0 -- -- 96
2019-11-06 04:00:00 4 9 Oeste 22 Oeste 0 -- -- 96
2019-11-06 03:00:00 4 9 Oeste 26 Oeste 0 -- -- 93
2019-11-06 02:00:00 4.6 18 Oeste 33 Oeste 0 -- -- 93
2019-11-06 01:00:00 5.1 18 Oeste 37 Oeste 0 -- -- 94
2019-11-06 00:00:00 5.5 26 Oeste 44 Oeste 0 -- -- 91